Time;durP1;ratioP1;P1;durP2;ratioP2;P2;SDS_P1;SDS_P2;PMS_P1;PMS_P2;Temp;Humidity;BMP_temperature;BMP_pressure;BME280_temperature;BME280_humidity;BME280_pressure;Samples;Min_cycle;Max_cycle;Signal;HPM_P1;HPM_P2
2023/06/30 00:01:48;;;;;;;4.93;2.67;;;22.90;72.40;;;;;;5042401;28;20697;-61
2023/06/30 00:04:22;;;;;;;6.80;2.77;;;22.90;72.60;;;;;;5034784;28;20210;-62
2023/06/30 00:06:49;;;;;;;8.07;3.33;;;22.80;72.40;;;;;;5036696;28;20282;-62
2023/06/30 00:09:19;;;;;;;3.33;3.00;;;22.80;72.40;;;;;;5039982;28;20229;-62
2023/06/30 00:11:53;;;;;;;3.73;2.80;;;22.80;72.40;;;;;;5047557;28;20205;-62
2023/06/30 00:14:21;;;;;;;7.33;3.53;;;22.80;72.30;;;;;;5049807;28;20211;-62
2023/06/30 00:16:49;;;;;;;5.40;3.57;;;22.80;72.30;;;;;;5042101;28;20603;-62
2023/06/30 00:19:18;;;;;;;7.90;2.97;;;22.80;72.20;;;;;;5047173;28;20214;-62
2023/06/30 00:21:48;;;;;;;6.73;3.73;;;22.80;72.30;;;;;;5045180;28;20264;-62
2023/06/30 00:24:15;;;;;;;10.00;3.67;;;22.80;72.40;;;;;;5041338;28;20281;-62
2023/06/30 00:26:42;;;;;;;8.97;3.70;;;22.80;72.70;;;;;;5036531;28;20302;-62
2023/06/30 00:29:10;;;;;;;6.70;3.13;;;22.80;73.00;;;;;;5038038;28;20202;-62
2023/06/30 00:31:37;;;;;;;9.17;3.77;;;22.70;73.20;;;;;;5050435;28;20195;-62
2023/06/30 00:34:04;;;;;;;8.10;3.33;;;22.70;73.40;;;;;;5049724;28;20607;-62
2023/06/30 00:36:32;;;;;;;5.47;3.30;;;22.70;73.60;;;;;;5045512;28;20217;-62
2023/06/30 00:38:59;;;;;;;9.20;3.47;;;22.70;73.90;;;;;;5045336;28;20198;-62
2023/06/30 00:41:26;;;;;;;5.13;3.97;;;22.70;74.30;;;;;;5027052;28;20311;-62
2023/06/30 00:43:53;;;;;;;5.83;3.07;;;22.70;74.50;;;;;;5046952;28;20195;-62
2023/06/30 00:46:20;;;;;;;7.97;4.07;;;22.60;74.50;;;;;;5035751;28;20213;-62
2023/06/30 00:48:49;;;;;;;4.90;3.83;;;22.60;74.90;;;;;;5044165;28;20223;-62
2023/06/30 00:51:17;;;;;;;7.23;4.43;;;22.50;75.20;;;;;;5043711;28;20202;-62
2023/06/30 00:53:44;;;;;;;9.70;3.90;;;22.50;75.40;;;;;;5038688;28;20199;-62
2023/06/30 00:56:11;;;;;;;8.80;3.97;;;22.50;75.60;;;;;;5042263;28;20225;-62
2023/06/30 00:58:38;;;;;;;6.53;4.00;;;22.50;75.80;;;;;;5035697;28;20211;-62
2023/06/30 01:01:26;;;;;;;6.40;3.70;;;22.40;76.00;;;;;;5034245;28;20206;-62
2023/06/30 01:04:43;;;;;;;11.07;4.77;;;22.40;76.60;;;;;;5021583;28;20630;-62
2023/06/30 01:07:23;;;;;;;7.60;4.03;;;22.40;76.70;;;;;;5044446;28;20242;-62
2023/06/30 01:10:23;;;;;;;12.17;4.10;;;22.40;76.60;;;;;;5030964;28;20241;-62
2023/06/30 01:13:17;;;;;;;9.23;5.00;;;22.30;76.70;;;;;;5044074;28;20230;-62
2023/06/30 01:15:45;;;;;;;8.90;4.50;;;22.30;76.60;;;;;;5045465;28;20207;-62
2023/06/30 01:18:16;;;;;;;16.93;5.53;;;22.30;76.60;;;;;;5042066;28;20203;-62
2023/06/30 01:20:44;;;;;;;10.17;4.37;;;22.30;76.80;;;;;;5060496;28;20199;-62
2023/06/30 01:23:35;;;;;;;7.07;4.67;;;22.30;76.90;;;;;;5025645;28;20205;-62
2023/06/30 01:26:02;;;;;;;9.27;4.50;;;22.30;77.20;;;;;;5048814;28;20304;-62
2023/06/30 01:28:34;;;;;;;7.17;4.23;;;22.20;77.10;;;;;;5042362;28;20546;-62
2023/06/30 01:31:08;;;;;;;11.00;4.47;;;22.20;77.20;;;;;;5059322;28;20235;-62
2023/06/30 01:33:40;;;;;;;10.67;5.23;;;22.20;77.30;;;;;;5033799;28;20232;-62
2023/06/30 01:36:08;;;;;;;6.03;4.17;;;22.10;77.50;;;;;;5032340;28;20215;-62
2023/06/30 01:38:35;;;;;;;9.07;5.23;;;22.10;78.40;;;;;;5060105;28;20702;-62
2023/06/30 01:41:06;;;;;;;8.03;4.20;;;22.00;77.70;;;;;;5038697;28;20652;-62
2023/06/30 01:43:35;;;;;;;6.60;4.27;;;22.00;77.80;;;;;;5045239;28;20191;-62
2023/06/30 01:46:03;;;;;;;9.80;4.13;;;22.00;78.10;;;;;;5032269;28;20209;-62
2023/06/30 01:48:33;;;;;;;6.30;4.07;;;21.90;78.30;;;;;;5044067;28;20218;-62
2023/06/30 01:51:04;;;;;;;11.93;4.33;;;22.00;78.50;;;;;;5036032;28;20535;-62
2023/06/30 01:53:34;;;;;;;8.83;4.37;;;21.90;78.60;;;;;;5057104;28;20202;-62
2023/06/30 01:56:05;;;;;;;7.77;4.27;;;21.90;78.80;;;;;;5025381;28;20280;-62
2023/06/30 01:58:32;;;;;;;5.00;3.67;;;21.90;79.10;;;;;;5032101;28;20622;-62
2023/06/30 02:00:59;;;;;;;11.67;3.67;;;21.90;79.30;;;;;;5046590;28;20194;-62
2023/06/30 02:03:29;;;;;;;6.83;3.90;;;21.90;79.20;;;;;;5027709;28;20190;-62
2023/06/30 02:05:57;;;;;;;8.53;3.90;;;22.00;79.10;;;;;;5040541;28;20198;-61
2023/06/30 02:08:24;;;;;;;7.30;4.40;;;22.00;78.90;;;;;;5046594;28;20218;-62
2023/06/30 02:10:51;;;;;;;8.00;3.87;;;22.00;79.00;;;;;;5041359;28;20206;-62
2023/06/30 02:13:18;;;;;;;7.10;3.13;;;22.00;79.20;;;;;;5027204;28;20536;-62
2023/06/30 02:15:45;;;;;;;5.63;3.67;;;22.00;79.40;;;;;;5029043;28;20222;-62
2023/06/30 02:18:15;;;;;;;5.73;3.90;;;22.10;79.30;;;;;;5026345;28;20215;-62
2023/06/30 02:20:42;;;;;;;8.87;3.57;;;22.10;79.80;;;;;;5030718;28;20211;-62
2023/06/30 02:23:09;;;;;;;8.00;3.63;;;22.10;79.00;;;;;;5044044;28;20216;-62
2023/06/30 02:25:38;;;;;;;6.43;3.40;;;22.10;79.00;;;;;;5032882;28;20231;-62
2023/06/30 02:28:06;;;;;;;6.73;4.23;;;22.10;79.10;;;;;;5041226;28;20560;-62
2023/06/30 02:30:33;;;;;;;4.40;3.20;;;22.10;79.40;;;;;;5041454;28;20211;-62
2023/06/30 02:33:00;;;;;;;5.50;3.77;;;22.10;79.50;;;;;;5057009;28;20205;-62
2023/06/30 02:35:28;;;;;;;5.03;3.37;;;22.10;79.70;;;;;;5044629;28;20198;-62
2023/06/30 02:37:55;;;;;;;4.70;3.20;;;22.10;79.80;;;;;;5064562;28;20211;-63
2023/06/30 02:40:22;;;;;;;5.63;2.93;;;22.10;79.60;;;;;;5039434;28;20204;-62
2023/06/30 02:42:49;;;;;;;7.03;3.07;;;22.10;79.50;;;;;;5039038;28;20210;-62
2023/06/30 02:45:17;;;;;;;9.77;2.90;;;22.10;79.40;;;;;;5035048;28;20194;-62
2023/06/30 02:47:44;;;;;;;5.60;3.17;;;22.10;79.10;;;;;;5033914;28;20207;-62
2023/06/30 02:50:12;;;;;;;5.60;3.30;;;22.10;78.70;;;;;;5041678;28;20576;-62
2023/06/30 02:52:40;;;;;;;6.97;3.83;;;22.10;79.30;;;;;;5022596;28;20207;-62
2023/06/30 02:55:08;;;;;;;6.53;3.70;;;22.10;78.80;;;;;;5052631;28;20233;-62
2023/06/30 02:57:35;;;;;;;6.40;3.57;;;22.10;78.90;;;;;;5033877;28;20241;-62
2023/06/30 03:00:03;;;;;;;7.87;4.03;;;22.00;79.20;;;;;;5028410;28;20206;-62
2023/06/30 03:02:32;;;;;;;7.30;4.00;;;22.00;79.20;;;;;;5024663;28;20191;-62
2023/06/30 03:04:59;;;;;;;12.13;4.20;;;21.90;79.30;;;;;;5040216;28;20195;-62
2023/06/30 03:07:28;;;;;;;4.83;3.90;;;21.90;79.50;;;;;;5031812;28;20199;-62
2023/06/30 03:09:56;;;;;;;7.93;4.00;;;21.80;80.00;;;;;;5028877;28;20203;-62
2023/06/30 03:12:24;;;;;;;8.57;4.00;;;21.80;80.40;;;;;;5030486;28;20203;-62
2023/06/30 03:14:51;;;;;;;7.03;3.83;;;21.70;80.80;;;;;;5048056;28;20275;-62
2023/06/30 03:17:18;;;;;;;12.53;4.73;;;21.70;81.10;;;;;;5026898;28;20296;-62
2023/06/30 03:19:49;;;;;;;6.80;4.17;;;21.60;81.20;;;;;;5026859;28;20206;-62
2023/06/30 03:22:16;;;;;;;5.53;3.50;;;21.60;81.20;;;;;;5059834;28;20199;-62
2023/06/30 03:24:43;;;;;;;8.80;4.43;;;21.60;81.50;;;;;;5032975;28;20235;-62
2023/06/30 03:27:10;;;;;;;6.47;3.37;;;21.50;81.60;;;;;;5028574;28;20560;-62
2023/06/30 03:29:37;;;;;;;7.53;3.97;;;21.50;81.60;;;;;;5036383;28;20203;-62
2023/06/30 03:32:04;;;;;;;6.00;4.23;;;21.40;81.50;;;;;;5019765;28;20203;-62
2023/06/30 03:34:32;;;;;;;8.00;3.97;;;21.40;81.30;;;;;;5055566;28;20210;-62
2023/06/30 03:36:59;;;;;;;7.47;4.00;;;21.40;81.20;;;;;;5044078;28;20610;-62
2023/06/30 03:39:26;;;;;;;4.50;3.93;;;21.40;81.40;;;;;;5043340;28;20664;-62
2023/06/30 03:41:56;;;;;;;9.10;4.80;;;21.40;81.50;;;;;;5034934;28;20213;-62
2023/06/30 03:44:23;;;;;;;7.53;4.97;;;21.40;81.70;;;;;;5031759;28;20580;-63
2023/06/30 03:46:50;;;;;;;7.93;4.27;;;21.40;81.70;;;;;;5028770;28;20272;-62
2023/06/30 03:49:17;;;;;;;13.43;4.47;;;21.40;81.80;;;;;;5032891;28;20569;-62
2023/06/30 03:51:45;;;;;;;5.57;4.27;;;21.40;82.00;;;;;;5033908;28;20592;-62
2023/06/30 03:54:14;;;;;;;15.10;5.03;;;21.30;82.20;;;;;;5039036;28;20209;-62
2023/06/30 03:56:41;;;;;;;8.70;4.40;;;21.40;82.40;;;;;;5049395;28;20222;-62
2023/06/30 03:59:09;;;;;;;6.43;4.20;;;21.40;82.40;;;;;;5043626;28;20206;-62
2023/06/30 04:01:39;;;;;;;6.17;4.10;;;21.30;82.30;;;;;;5028162;28;20199;-61
2023/06/30 04:04:07;;;;;;;9.13;4.90;;;21.40;82.70;;;;;;5040600;28;20554;-62
2023/06/30 04:06:36;;;;;;;5.77;4.40;;;21.40;83.00;;;;;;5041194;28;20214;-62
2023/06/30 04:09:05;;;;;;;8.70;4.03;;;21.40;83.90;;;;;;5045462;28;20201;-62
2023/06/30 04:11:32;;;;;;;6.30;4.60;;;21.40;83.60;;;;;;5045600;28;20203;-62
2023/06/30 04:14:00;;;;;;;13.53;5.50;;;21.40;83.60;;;;;;5031837;28;20211;-62
2023/06/30 04:16:27;;;;;;;6.87;4.50;;;21.40;83.40;;;;;;5041701;28;20206;-62
2023/06/30 04:18:54;;;;;;;5.50;4.17;;;21.50;83.60;;;;;;5042098;28;20241;-62
2023/06/30 04:21:22;;;;;;;8.40;4.30;;;21.50;83.80;;;;;;5045127;28;20217;-62
2023/06/30 04:23:51;;;;;;;8.37;4.67;;;21.50;83.80;;;;;;5044836;28;20281;-62
2023/06/30 04:26:18;;;;;;;5.03;4.53;;;21.50;83.50;;;;;;5043697;28;20237;-62
2023/06/30 04:28:46;;;;;;;7.10;4.70;;;21.60;83.30;;;;;;5047933;28;20546;-62
2023/06/30 04:31:13;;;;;;;8.83;4.97;;;21.60;83.00;;;;;;5043487;28;20636;-62
2023/06/30 04:33:40;;;;;;;5.17;4.47;;;21.60;82.80;;;;;;5047751;28;20568;-62
2023/06/30 04:36:07;;;;;;;7.73;4.10;;;21.70;82.80;;;;;;5044532;28;20227;-62
2023/06/30 04:38:35;;;;;;;9.60;5.30;;;21.80;83.00;;;;;;5047075;28;20221;-62
2023/06/30 04:41:04;;;;;;;8.50;4.90;;;21.80;82.90;;;;;;5037067;28;20202;-62
2023/06/30 04:43:32;;;;;;;7.60;4.67;;;21.80;82.60;;;;;;5031593;28;20197;-62
2023/06/30 04:45:59;;;;;;;8.70;4.47;;;21.90;82.50;;;;;;5044218;28;20269;-62
2023/06/30 04:48:27;;;;;;;7.80;5.10;;;21.90;82.20;;;;;;5057973;28;20334;-62
2023/06/30 04:50:54;;;;;;;7.47;4.63;;;21.90;82.00;;;;;;5028066;28;20590;-62
2023/06/30 04:53:21;;;;;;;7.20;4.70;;;21.90;82.20;;;;;;5042980;28;20558;-62
2023/06/30 04:55:47;;;;;;;5.87;3.97;;;21.90;82.30;;;;;;5045226;28;20198;-62
2023/06/30 04:58:15;;;;;;;8.00;4.47;;;22.10;82.60;;;;;;5040155;28;20229;-62
2023/06/30 05:00:43;;;;;;;5.13;4.50;;;22.10;82.60;;;;;;5043449;28;20279;-62
2023/06/30 05:03:10;;;;;;;7.00;4.90;;;22.20;82.70;;;;;;5039083;28;20221;-62
2023/06/30 05:05:38;;;;;;;8.37;4.70;;;22.20;82.60;;;;;;5038965;28;20650;-62
2023/06/30 05:08:05;;;;;;;5.30;4.27;;;22.20;82.10;;;;;;5044216;28;20213;-62
2023/06/30 05:10:32;;;;;;;7.57;3.97;;;22.20;81.70;;;;;;5045615;28;20264;-62
2023/06/30 05:12:59;;;;;;;5.87;5.13;;;22.30;81.20;;;;;;5042558;28;20207;-62
2023/06/30 05:15:26;;;;;;;8.87;4.63;;;22.30;80.90;;;;;;5040388;28;20213;-62
2023/06/30 05:17:53;;;;;;;4.17;3.77;;;22.30;80.70;;;;;;5042273;28;20210;-62
2023/06/30 05:20:21;;;;;;;8.33;4.40;;;22.40;80.90;;;;;;5030967;28;20656;-62
2023/06/30 05:22:48;;;;;;;6.27;4.23;;;22.50;81.20;;;;;;5045744;28;20197;-62
2023/06/30 05:25:15;;;;;;;5.13;4.40;;;22.60;81.30;;;;;;5049331;28;20257;-62
2023/06/30 05:27:42;;;;;;;5.27;4.40;;;22.60;81.20;;;;;;5046269;28;20309;-62
2023/06/30 05:30:10;;;;;;;5.97;4.70;;;22.70;80.90;;;;;;5051990;28;20218;-62
2023/06/30 05:32:39;;;;;;;8.70;6.43;;;22.70;80.50;;;;;;5042989;28;20206;-62
2023/06/30 05:35:07;;;;;;;8.77;5.83;;;22.70;80.10;;;;;;5043458;28;20214;-62
2023/06/30 05:37:34;;;;;;;5.70;5.13;;;22.70;80.30;;;;;;5041718;28;20214;-62
2023/06/30 05:40:01;;;;;;;5.50;4.70;;;22.70;80.30;;;;;;5037366;28;20249;-62
2023/06/30 05:42:28;;;;;;;4.50;4.10;;;22.80;80.50;;;;;;5038183;28;20202;-62
2023/06/30 05:44:55;;;;;;;6.00;4.50;;;22.90;80.30;;;;;;5043348;28;20283;-62
2023/06/30 05:47:22;;;;;;;5.60;4.17;;;23.00;79.90;;;;;;5046011;28;20269;-62
2023/06/30 05:49:49;;;;;;;5.20;4.20;;;23.10;79.40;;;;;;5042379;28;20206;-62
2023/06/30 05:52:16;;;;;;;4.40;4.00;;;23.20;79.10;;;;;;5040472;28;20207;-62
2023/06/30 05:54:43;;;;;;;4.70;3.80;;;23.30;79.10;;;;;;5031127;28;20199;-62
2023/06/30 05:57:10;;;;;;;12.30;4.47;;;23.40;79.00;;;;;;5043905;28;20219;-62
2023/06/30 05:59:39;;;;;;;4.73;4.23;;;23.60;78.50;;;;;;5043052;28;20191;-62
2023/06/30 06:02:06;;;;;;;6.90;4.70;;;23.70;78.20;;;;;;5043997;28;20203;-62
2023/06/30 06:04:35;;;;;;;4.47;4.07;;;23.80;78.10;;;;;;5048603;28;20557;-62
2023/06/30 06:07:05;;;;;;;8.80;4.50;;;23.90;77.80;;;;;;5050279;28;20203;-62
2023/06/30 06:09:33;;;;;;;7.83;5.03;;;24.00;77.60;;;;;;5042608;28;20625;-62
2023/06/30 06:12:02;;;;;;;10.63;4.47;;;24.10;76.50;;;;;;5041490;28;20195;-62
2023/06/30 06:14:29;;;;;;;9.40;4.70;;;24.10;76.60;;;;;;5039982;28;20207;-62
2023/06/30 06:16:56;;;;;;;5.77;4.27;;;24.10;76.90;;;;;;5040535;28;20199;-62
2023/06/30 06:19:23;;;;;;;7.10;3.93;;;24.30;77.20;;;;;;5039834;28;20203;-62
2023/06/30 06:21:50;;;;;;;4.87;4.00;;;24.40;77.00;;;;;;5042852;28;20195;-62
2023/06/30 06:24:17;;;;;;;6.30;4.43;;;24.60;77.00;;;;;;5049336;28;20198;-62
2023/06/30 06:26:49;;;;;;;7.50;3.80;;;24.80;76.30;;;;;;5025176;28;20258;-62
2023/06/30 06:29:21;;;;;;;7.07;4.07;;;25.00;75.90;;;;;;5039446;28;20599;-62
2023/06/30 06:31:52;;;;;;;5.77;3.63;;;25.30;75.50;;;;;;5041096;28;20534;-62
2023/06/30 06:34:19;;;;;;;4.77;3.80;;;25.50;74.30;;;;;;5041831;28;20267;-62
2023/06/30 06:36:47;;;;;;;3.83;3.30;;;25.70;72.90;;;;;;5042757;28;20520;-62
2023/06/30 06:39:14;;;;;;;4.13;3.63;;;25.80;72.00;;;;;;5038447;28;20222;-62
2023/06/30 06:41:41;;;;;;;10.90;3.70;;;25.80;72.10;;;;;;5043682;28;20199;-62
2023/06/30 06:44:15;;;;;;;5.20;4.20;;;25.80;72.00;;;;;;5035820;28;20621;-62
2023/06/30 06:46:43;;;;;;;8.10;4.50;;;25.80;72.70;;;;;;5042069;28;20204;-62
2023/06/30 06:49:10;;;;;;;5.43;4.10;;;25.90;73.00;;;;;;5041495;28;20549;-63
2023/06/30 06:51:37;;;;;;;5.77;4.67;;;25.90;72.70;;;;;;5038269;28;20594;-62
2023/06/30 06:54:04;;;;;;;7.60;6.07;;;26.10;73.00;;;;;;5036349;28;20268;-62
2023/06/30 06:56:31;;;;;;;11.67;5.40;;;26.20;72.90;;;;;;5041390;28;20205;-62
2023/06/30 06:58:58;;;;;;;8.73;4.20;;;26.50;72.20;;;;;;5043378;28;20539;-62
2023/06/30 07:01:25;;;;;;;5.87;4.40;;;26.70;71.40;;;;;;5040837;28;20209;-62
2023/06/30 07:03:54;;;;;;;5.40;3.67;;;26.80;70.80;;;;;;5038598;28;20209;-62
2023/06/30 07:06:22;;;;;;;7.43;4.13;;;26.90;70.50;;;;;;5044946;28;20202;-62
2023/06/30 07:08:49;;;;;;;4.83;3.97;;;27.00;70.10;;;;;;5039332;28;20206;-62
2023/06/30 07:11:16;;;;;;;4.03;3.47;;;27.10;70.10;;;;;;5043257;28;20211;-62
2023/06/30 07:13:43;;;;;;;4.73;3.90;;;27.10;68.90;;;;;;5039742;28;20214;-62
2023/06/30 07:16:10;;;;;;;5.77;4.93;;;27.10;68.90;;;;;;5038618;28;20219;-62
2023/06/30 07:18:39;;;;;;;4.30;3.90;;;27.10;69.10;;;;;;5043047;28;20613;-62
2023/06/30 07:21:07;;;;;;;4.97;3.93;;;27.10;69.40;;;;;;5042796;28;20236;-62
2023/06/30 07:23:34;;;;;;;4.87;3.90;;;27.00;69.10;;;;;;5043393;28;20692;-62
2023/06/30 07:26:01;;;;;;;5.00;3.90;;;27.00;68.40;;;;;;5038332;28;20232;-62
2023/06/30 07:28:31;;;;;;;7.57;4.43;;;27.00;69.20;;;;;;5038815;28;20236;-62
2023/06/30 07:30:58;;;;;;;4.90;4.40;;;27.00;69.60;;;;;;5041994;28;20199;-62
2023/06/30 07:33:25;;;;;;;5.23;3.43;;;27.00;70.00;;;;;;5042555;28;20221;-62
2023/06/30 07:35:52;;;;;;;11.87;3.80;;;27.00;71.00;;;;;;5040423;28;20221;-62
2023/06/30 07:38:19;;;;;;;6.87;3.90;;;27.10;70.70;;;;;;5046316;28;20669;-62
2023/06/30 07:40:47;;;;;;;6.43;4.00;;;27.10;71.00;;;;;;5038051;28;20290;-62
2023/06/30 07:43:23;;;;;;;5.40;4.40;;;27.20;71.00;;;;;;5044874;28;20226;-62
2023/06/30 07:45:52;;;;;;;6.33;4.37;;;27.30;70.80;;;;;;5040710;28;20209;-62
2023/06/30 07:48:20;;;;;;;7.63;3.27;;;27.40;70.20;;;;;;5039458;28;20210;-62
2023/06/30 07:50:47;;;;;;;5.00;4.00;;;27.40;69.80;;;;;;5036359;28;20294;-62
2023/06/30 07:53:35;;;;;;;6.30;3.93;;;27.50;70.20;;;;;;5034983;28;20215;-62
2023/06/30 07:56:02;;;;;;;5.10;3.67;;;27.60;69.90;;;;;;5041174;28;20209;-62
2023/06/30 07:58:29;;;;;;;9.87;4.20;;;27.60;69.80;;;;;;5043718;28;20713;-62
2023/06/30 08:00:56;;;;;;;4.53;4.13;;;27.70;70.10;;;;;;5022982;28;20519;-62
2023/06/30 08:03:23;;;;;;;8.30;3.93;;;27.70;70.40;;;;;;5036206;28;20641;-62
2023/06/30 08:05:50;;;;;;;4.77;4.20;;;27.80;70.00;;;;;;5034515;28;20200;-62
2023/06/30 08:08:18;;;;;;;7.50;4.10;;;27.90;69.50;;;;;;5039637;28;20668;-62
2023/06/30 08:10:45;;;;;;;12.73;4.40;;;28.00;68.80;;;;;;5044291;28;20538;-62
2023/06/30 08:13:15;;;;;;;5.03;4.63;;;28.20;68.90;;;;;;5024295;28;20213;-62
2023/06/30 08:15:42;;;;;;;12.27;4.83;;;28.40;67.60;;;;;;5046507;28;20207;-62
2023/06/30 08:18:13;;;;;;;7.07;5.33;;;28.60;67.30;;;;;;5041885;28;20298;-62
2023/06/30 08:20:58;;;;;;;7.10;5.13;;;28.80;66.90;;;;;;5044929;28;20646;-62
2023/06/30 08:23:27;;;;;;;10.03;5.10;;;29.00;66.30;;;;;;5040993;28;20199;-62
2023/06/30 08:25:55;;;;;;;8.13;5.33;;;29.20;66.00;;;;;;5037554;28;20265;-62
2023/06/30 08:28:22;;;;;;;6.53;5.70;;;29.30;65.50;;;;;;5043732;28;20199;-62
2023/06/30 08:30:52;;;;;;;5.77;5.27;;;29.40;64.90;;;;;;5038339;28;20194;-62
2023/06/30 08:33:21;;;;;;;16.10;6.07;;;29.60;65.20;;;;;;5043976;28;20269;-62
2023/06/30 08:36:06;;;;;;;8.50;5.97;;;29.70;64.20;;;;;;5046138;28;20249;-62
2023/06/30 08:38:34;;;;;;;6.97;6.27;;;29.80;64.00;;;;;;5046123;28;20225;-62
2023/06/30 08:41:02;;;;;;;8.67;6.43;;;29.90;63.10;;;;;;5042213;28;20261;-62
2023/06/30 08:43:32;;;;;;;9.80;6.30;;;29.90;62.90;;;;;;5048644;28;20204;-62
2023/06/30 08:46:03;;;;;;;7.70;5.77;;;30.00;62.60;;;;;;5045104;28;20294;-62
2023/06/30 08:48:31;;;;;;;7.93;5.20;;;30.00;62.50;;;;;;5039909;28;20195;-62
2023/06/30 08:50:59;;;;;;;14.13;6.53;;;30.00;62.40;;;;;;5048383;28;20207;-62
2023/06/30 08:53:28;;;;;;;11.27;7.10;;;30.00;62.30;;;;;;5054816;28;20591;-62
2023/06/30 08:55:59;;;;;;;16.33;6.50;;;30.10;62.10;;;;;;5050992;28;20309;-62
2023/06/30 08:58:34;;;;;;;6.83;5.13;;;30.10;62.10;;;;;;5045673;28;20214;-62
2023/06/30 09:01:04;;;;;;;9.03;5.17;;;30.10;61.70;;;;;;5044479;28;20248;-62
2023/06/30 09:03:31;;;;;;;5.83;5.00;;;30.00;61.00;;;;;;5039770;28;20285;-62
2023/06/30 09:06:00;;;;;;;6.53;4.07;;;29.80;61.60;;;;;;5044063;28;20203;-62
2023/06/30 09:08:41;;;;;;;5.40;3.60;;;29.70;61.70;;;;;;5040577;28;20203;-62
2023/06/30 09:11:08;;;;;;;6.87;3.70;;;29.50;61.60;;;;;;5047207;28;20206;-62
2023/06/30 09:13:39;;;;;;;5.80;4.27;;;29.20;62.40;;;;;;5044876;28;20227;-62
2023/06/30 09:16:10;;;;;;;5.83;3.93;;;29.00;63.00;;;;;;5036571;28;20208;-62
2023/06/30 09:18:37;;;;;;;15.43;3.80;;;28.80;63.40;;;;;;5042826;28;20285;-62
2023/06/30 09:21:06;;;;;;;6.47;3.43;;;28.60;63.20;;;;;;5043470;28;20501;-62
2023/06/30 09:23:34;;;;;;;4.33;3.50;;;28.50;63.60;;;;;;5045917;28;20231;-62
2023/06/30 09:26:01;;;;;;;8.07;3.37;;;28.40;64.20;;;;;;5038762;28;20250;-62
2023/06/30 09:28:34;;;;;;;7.07;3.40;;;28.30;64.30;;;;;;5048493;28;20612;-62
2023/06/30 09:31:03;;;;;;;6.93;3.20;;;28.20;64.00;;;;;;5045765;28;20220;-62
2023/06/30 09:33:35;;;;;;;5.63;3.23;;;28.30;64.70;;;;;;5042971;28;20199;-62
2023/06/30 09:36:03;;;;;;;6.40;3.27;;;28.20;64.80;;;;;;5043106;28;20245;-62
2023/06/30 09:38:35;;;;;;;5.63;3.53;;;28.30;64.50;;;;;;5044946;28;20541;-62
2023/06/30 09:41:05;;;;;;;6.03;3.83;;;28.30;64.10;;;;;;5042377;28;20650;-62
2023/06/30 09:43:33;;;;;;;5.43;3.50;;;28.30;64.20;;;;;;5043003;28;20201;-62
2023/06/30 09:46:01;;;;;;;7.20;3.37;;;28.30;64.40;;;;;;5042429;28;20600;-62
2023/06/30 09:48:32;;;;;;;5.50;3.90;;;28.20;64.60;;;;;;5045670;28;20520;-62
2023/06/30 09:50:59;;;;;;;9.30;4.50;;;28.20;64.20;;;;;;5038212;28;20693;-62
2023/06/30 09:53:39;;;;;;;8.63;5.23;;;28.10;64.20;;;;;;5036701;28;20705;-62
2023/06/30 09:56:08;;;;;;;9.07;5.10;;;28.10;65.60;;;;;;5041548;28;20207;-62
2023/06/30 09:58:44;;;;;;;8.27;6.03;;;28.00;66.80;;;;;;5043575;28;20218;-62
2023/06/30 10:01:11;;;;;;;8.00;4.77;;;27.80;67.80;;;;;;5045938;28;20213;-62
2023/06/30 10:03:50;;;;;;;7.37;5.37;;;27.70;68.80;;;;;;5042980;28;20202;-62
2023/06/30 10:06:20;;;;;;;11.40;5.50;;;27.50;69.80;;;;;;5037883;28;20253;-62
2023/06/30 10:08:48;;;;;;;7.20;5.20;;;27.40;70.60;;;;;;5046671;28;20199;-62
2023/06/30 10:11:16;;;;;;;7.10;6.40;;;27.30;71.50;;;;;;5042905;28;20207;-62
2023/06/30 10:13:45;;;;;;;13.77;6.80;;;27.20;72.40;;;;;;5043136;28;20602;-62
2023/06/30 10:16:13;;;;;;;8.60;6.17;;;27.10;72.60;;;;;;5037992;28;20543;-62
2023/06/30 10:18:45;;;;;;;8.93;6.57;;;27.00;72.90;;;;;;5040706;28;20665;-62
2023/06/30 10:21:13;;;;;;;8.33;5.47;;;27.00;73.30;;;;;;5041045;28;20202;-62
2023/06/30 10:23:42;;;;;;;12.60;6.37;;;27.00;73.60;;;;;;5046892;28;20194;-62
2023/06/30 10:26:14;;;;;;;7.67;5.67;;;26.90;73.60;;;;;;5049189;28;20242;-63
2023/06/30 10:28:42;;;;;;;6.70;5.87;;;26.90;74.30;;;;;;5039362;28;20217;-62
2023/06/30 10:31:10;;;;;;;7.80;6.27;;;26.90;74.70;;;;;;5058822;28;20565;-62
2023/06/30 10:33:38;;;;;;;6.97;5.30;;;26.80;74.60;;;;;;5044728;28;20290;-62
2023/06/30 10:36:07;;;;;;;5.87;4.67;;;26.80;74.40;;;;;;5040978;28;20210;-62
2023/06/30 10:38:36;;;;;;;8.43;4.43;;;26.70;74.70;;;;;;5044146;28;20661;-62
2023/06/30 10:41:19;;;;;;;4.80;4.30;;;26.70;74.90;;;;;;5042453;28;20199;-62
2023/06/30 10:44:08;;;;;;;4.93;4.40;;;26.60;75.20;;;;;;5042989;28;20280;-62
2023/06/30 10:46:52;;;;;;;6.93;5.00;;;26.60;74.40;;;;;;5043464;28;20317;-62
2023/06/30 10:49:39;;;;;;;7.03;4.47;;;26.60;75.10;;;;;;5040918;28;20217;-63
2023/06/30 10:52:10;;;;;;;7.73;4.77;;;26.60;75.70;;;;;;5040117;28;20206;-62
2023/06/30 10:54:45;;;;;;;5.80;4.63;;;26.60;75.70;;;;;;5042698;28;20260;-62
2023/06/30 10:57:18;;;;;;;7.20;4.67;;;26.60;76.20;;;;;;5042567;28;20198;-62
2023/06/30 10:59:46;;;;;;;4.30;3.90;;;26.70;76.30;;;;;;5033897;28;20210;-62
2023/06/30 11:02:22;;;;;;;6.13;4.73;;;26.80;76.00;;;;;;5046457;28;20194;-63
2023/06/30 11:04:52;;;;;;;13.00;4.77;;;26.90;76.40;;;;;;5036287;28;20256;-62
2023/06/30 11:07:29;;;;;;;8.20;5.37;;;27.00;75.90;;;;;;5033154;28;20203;-62
2023/06/30 11:09:58;;;;;;;14.37;5.13;;;27.00;75.40;;;;;;5044120;28;20324;-62
2023/06/30 11:12:27;;;;;;;10.20;5.60;;;27.00;74.90;;;;;;5042840;28;20548;-62
2023/06/30 11:14:59;;;;;;;5.43;4.50;;;27.00;74.50;;;;;;5038718;28;20507;-62
2023/06/30 11:17:52;;;;;;;7.33;5.60;;;27.00;75.10;;;;;;5036473;28;20264;-62
2023/06/30 11:20:26;;;;;;;7.87;5.33;;;27.00;76.20;;;;;;5036765;28;20264;-62
2023/06/30 11:22:57;;;;;;;5.40;4.90;;;27.00;75.90;;;;;;5045112;28;20209;-62
2023/06/30 11:25:29;;;;;;;6.43;5.47;;;27.10;76.30;;;;;;5039679;28;20591;-62
2023/06/30 11:27:57;;;;;;;11.23;5.37;;;27.20;76.90;;;;;;5037168;28;20271;-62
2023/06/30 11:30:25;;;;;;;7.90;5.57;;;27.30;77.20;;;;;;5040217;28;20199;-62
2023/06/30 11:32:58;;;;;;;8.00;5.63;;;27.40;77.00;;;;;;5033171;28;20209;-62
2023/06/30 11:35:26;;;;;;;5.83;5.27;;;27.40;76.90;;;;;;5045241;28;20206;-62
2023/06/30 11:37:54;;;;;;;6.47;4.10;;;27.40;77.20;;;;;;5046497;28;20221;-62
2023/06/30 11:40:22;;;;;;;10.77;4.20;;;27.40;76.50;;;;;;5051527;28;20232;-62
2023/06/30 11:42:51;;;;;;;6.53;4.13;;;27.40;74.60;;;;;;5048520;28;20198;-63
2023/06/30 11:45:27;;;;;;;5.93;4.30;;;27.30;73.70;;;;;;5045929;28;20202;-63
2023/06/30 11:47:55;;;;;;;6.83;4.30;;;27.20;73.60;;;;;;5041100;28;20861;-62
2023/06/30 11:50:25;;;;;;;6.67;4.83;;;27.20;73.80;;;;;;5041118;28;20563;-62
2023/06/30 11:52:52;;;;;;;5.40;4.63;;;27.10;74.10;;;;;;5041011;28;20209;-62
2023/06/30 11:55:19;;;;;;;5.33;4.50;;;27.10;74.20;;;;;;5027905;28;20667;-62
2023/06/30 11:57:46;;;;;;;4.73;4.13;;;27.00;74.40;;;;;;5042442;28;20602;-62
2023/06/30 12:00:24;;;;;;;6.10;4.57;;;27.00;74.50;;;;;;5043854;28;20676;-63
2023/06/30 12:02:56;;;;;;;4.87;4.30;;;27.00;74.40;;;;;;5040765;28;20648;-62
2023/06/30 12:05:28;;;;;;;4.87;4.37;;;27.00;74.60;;;;;;5041110;28;20217;-63
2023/06/30 12:07:56;;;;;;;8.77;4.70;;;27.00;74.70;;;;;;5042937;28;20214;-62
2023/06/30 12:10:37;;;;;;;5.40;4.73;;;27.00;74.70;;;;;;5046307;28;20598;-63
2023/06/30 12:13:09;;;;;;;5.43;4.70;;;27.00;74.80;;;;;;5048465;28;20221;-62
2023/06/30 12:15:36;;;;;;;10.07;4.87;;;27.00;74.50;;;;;;5040449;28;20265;-62
2023/06/30 12:18:05;;;;;;;7.93;5.07;;;27.00;74.40;;;;;;5041320;28;20534;-62
2023/06/30 12:20:38;;;;;;;10.33;5.90;;;27.10;74.60;;;;;;5047264;28;20288;-62
2023/06/30 12:23:06;;;;;;;11.30;6.00;;;27.00;74.90;;;;;;5044695;28;20607;-62
2023/06/30 12:25:35;;;;;;;6.43;5.17;;;27.10;75.00;;;;;;5043697;28;20234;-62
2023/06/30 12:28:04;;;;;;;5.73;5.07;;;27.10;74.90;;;;;;5040424;28;20661;-62
2023/06/30 12:30:31;;;;;;;5.43;4.47;;;27.00;74.60;;;;;;5046838;28;20199;-62
2023/06/30 12:33:00;;;;;;;8.13;4.20;;;27.00;74.30;;;;;;5044336;28;20298;-62
2023/06/30 12:35:33;;;;;;;9.83;3.93;;;27.00;74.00;;;;;;5048856;28;20218;-62
2023/06/30 12:38:04;;;;;;;4.40;4.00;;;26.90;73.90;;;;;;5046365;28;20202;-62
2023/06/30 12:40:31;;;;;;;5.27;3.87;;;26.90;74.10;;;;;;5042040;28;20227;-62
2023/06/30 12:42:58;;;;;;;6.50;4.30;;;26.80;74.30;;;;;;5041085;28;20214;-62
2023/06/30 12:45:26;;;;;;;6.33;4.60;;;26.80;74.60;;;;;;5048002;28;20252;-62
2023/06/30 12:47:56;;;;;;;8.33;5.00;;;26.70;74.40;;;;;;5041399;28;20202;-62
2023/06/30 12:50:23;;;;;;;6.20;4.43;;;26.70;74.70;;;;;;5039892;28;20199;-62
2023/06/30 12:52:52;;;;;;;10.40;4.43;;;26.60;74.90;;;;;;5037551;28;20202;-63
2023/06/30 12:55:22;;;;;;;5.67;3.90;;;26.60;75.10;;;;;;5041867;28;20215;-62
2023/06/30 12:57:50;;;;;;;6.50;4.07;;;26.60;75.40;;;;;;5046232;28;20272;-62